createdAt,value
2023-01-23T00:01:51.515Z,101768.84
2023-01-23T00:04:53.125Z,101765.56
2023-01-23T00:07:54.972Z,101766.72
2023-01-23T00:10:57.091Z,101761.53
2023-01-23T00:14:01.155Z,101764.34
2023-01-23T00:17:02.908Z,101766.47
2023-01-23T00:20:05.633Z,101763.88
2023-01-23T00:23:08.096Z,101766.47
2023-01-23T00:26:13.349Z,101761.84
2023-01-23T00:29:17.025Z,101758.22
2023-01-23T00:32:18.864Z,101757.47
2023-01-23T00:35:20.805Z,101764.75
2023-01-23T00:38:22.774Z,101762.38
2023-01-23T00:41:24.593Z,101753.03
2023-01-23T00:44:27.788Z,101756.72
2023-01-23T00:47:29.604Z,101755.69
2023-01-23T00:50:31.321Z,101760.69
2023-01-23T00:53:32.991Z,101763.81
2023-01-23T00:56:34.594Z,101765.94
2023-01-23T00:59:37.770Z,101760.50
2023-01-23T01:02:39.464Z,101766.63
2023-01-23T01:05:41.161Z,101772.94
2023-01-23T01:08:43.073Z,101778.09
2023-01-23T01:11:44.875Z,101778.34
2023-01-23T01:14:48.031Z,101780.94
2023-01-23T01:17:50.219Z,101780.25
2023-01-23T01:20:52.981Z,101779.38
2023-01-23T01:23:56.183Z,101777.03
2023-01-23T01:26:57.872Z,101779.41
2023-01-23T01:30:00.876Z,101782.06
2023-01-23T01:33:03.406Z,101784.94
2023-01-23T01:36:08.656Z,101784.94
2023-01-23T01:39:10.365Z,101791.31
2023-01-23T01:42:11.983Z,101789.44
2023-01-23T01:45:51.314Z,101798.09
2023-01-23T01:49:07.678Z,101787.06
2023-01-23T01:52:12.357Z,101788.19
2023-01-23T01:55:15.332Z,101782.56
2023-01-23T01:58:18.009Z,101788.16
2023-01-23T02:01:20.469Z,101792.19
2023-01-23T02:04:23.901Z,101798.53
2023-01-23T02:07:32.426Z,101803.03
2023-01-23T02:10:36.147Z,101801.63
2023-01-23T02:13:39.808Z,101803.25
2023-01-23T02:16:46.423Z,101808.19
2023-01-23T02:19:57.851Z,101804.25
2023-01-23T02:23:10.596Z,101800.22
2023-01-23T02:26:17.926Z,101799.28
2023-01-23T02:29:20.510Z,101798.38
2023-01-23T02:32:26.927Z,101805.63
2023-01-23T02:35:31.021Z,101800.00
2023-01-23T02:38:48.717Z,101800.22
2023-01-23T02:41:54.295Z,101800.69
2023-01-23T02:44:59.882Z,101810.53
2023-01-23T02:48:01.675Z,101808.41
2023-01-23T02:51:03.704Z,101805.16
2023-01-23T02:54:05.647Z,101800.00
2023-01-23T02:57:09.353Z,101804.50
2023-01-23T03:00:20.361Z,101808.00
2023-01-23T03:03:22.848Z,101811.56
2023-01-23T03:06:24.534Z,101805.47
2023-01-23T03:09:26.854Z,101805.00
2023-01-23T03:12:29.941Z,101805.00
2023-01-23T03:15:31.668Z,101805.25
2023-01-23T03:18:39.977Z,101804.78
2023-01-23T03:21:47.439Z,101804.28
2023-01-23T03:24:49.169Z,101808.97
2023-01-23T03:27:52.221Z,101808.53
2023-01-23T03:30:54.362Z,101804.78
2023-01-23T03:33:56.068Z,101811.34
2023-01-23T03:36:59.526Z,101817.69
2023-01-23T03:40:20.364Z,101819.56
2023-01-23T03:43:23.682Z,101820.78
2023-01-23T03:46:25.510Z,101823.81
2023-01-23T03:49:27.519Z,101826.88
2023-01-23T03:52:33.087Z,101826.88
2023-01-23T03:55:34.822Z,101820.03
2023-01-23T03:58:39.235Z,101820.03
2023-01-23T04:01:41.287Z,101811.56
2023-01-23T04:04:43.224Z,101815.09
2023-01-23T04:07:45.171Z,101810.19
2023-01-23T04:10:46.811Z,101806.88
2023-01-23T04:13:53.089Z,101815.59
2023-01-23T04:16:54.877Z,101819.09
2023-01-23T04:19:56.476Z,101824.53
2023-01-23T04:22:58.221Z,101824.06
2023-01-23T04:26:01.737Z,101827.34
2023-01-23T04:29:04.856Z,101819.81
2023-01-23T04:32:09.529Z,101825.25
2023-01-23T04:35:15.912Z,101823.38
2023-01-23T04:38:18.348Z,101821.47
2023-01-23T04:41:21.961Z,101829.47
2023-01-23T04:44:29.303Z,101839.81
2023-01-23T04:47:51.184Z,101833.25
2023-01-23T04:50:53.036Z,101841.69
2023-01-23T04:53:54.938Z,101837.44
2023-01-23T04:56:57.569Z,101841.91
2023-01-23T05:00:00.890Z,101841.69
2023-01-23T05:03:04.326Z,101843.53
2023-01-23T05:06:06.724Z,101846.84
2023-01-23T05:09:08.513Z,101851.81
2023-01-23T05:12:14.337Z,101859.34
2023-01-23T05:15:18.326Z,101859.56
2023-01-23T05:18:21.351Z,101864.75
2023-01-23T05:21:23.019Z,101873.91
2023-01-23T05:24:24.701Z,101878.34
2023-01-23T05:27:26.417Z,101866.81
2023-01-23T05:30:30.336Z,101875.25
2023-01-23T05:33:47.493Z,101882.78
2023-01-23T05:36:49.797Z,101884.88
2023-01-23T05:39:52.534Z,101889.78
2023-01-23T05:42:55.301Z,101890.06
2023-01-23T05:46:13.733Z,101890.31
2023-01-23T05:49:22.843Z,101885.13
2023-01-23T05:52:26.090Z,101898.34
2023-01-23T05:55:27.751Z,101892.00
2023-01-23T05:58:30.702Z,101898.06
2023-01-23T06:01:55.228Z,101900.44
2023-01-23T06:05:15.124Z,101899.75
2023-01-23T06:08:45.689Z,101914.56
2023-01-23T06:11:47.400Z,101914.59
2023-01-23T06:14:49.921Z,101919.75
2023-01-23T06:17:52.993Z,101909.63
2023-01-23T06:20:58.612Z,101914.59
2023-01-23T06:24:00.414Z,101920.22
2023-01-23T06:27:08.023Z,101919.03
2023-01-23T06:30:12.416Z,101914.56
2023-01-23T06:33:17.892Z,101909.19
2023-01-23T06:36:20.547Z,101924.03
2023-01-23T06:39:23.148Z,101920.66
2023-01-23T06:42:26.517Z,101921.34
2023-01-23T06:45:28.299Z,101913.59
2023-01-23T06:48:31.315Z,101910.78
2023-01-23T06:51:34.420Z,101913.91
2023-01-23T06:54:36.689Z,101914.09
2023-01-23T06:57:38.799Z,101917.38
2023-01-23T07:00:44.876Z,101914.31
2023-01-23T07:03:59.889Z,101915.47
2023-01-23T07:07:01.805Z,101921.50
2023-01-23T07:10:05.471Z,101936.94
2023-01-23T07:13:08.282Z,101940.22
2023-01-23T07:16:10.054Z,101950.59
2023-01-23T07:19:14.621Z,101955.78
2023-01-23T07:22:18.703Z,101959.38
2023-01-23T07:25:20.410Z,101960.88
2023-01-23T07:28:22.037Z,101964.44
2023-01-23T07:31:23.894Z,101968.22
2023-01-23T07:34:26.962Z,101978.03
2023-01-23T07:37:28.795Z,101974.31
2023-01-23T07:40:30.443Z,101978.59
2023-01-23T07:43:32.201Z,101983.78
2023-01-23T07:46:33.943Z,101984.19
2023-01-23T07:49:37.005Z,101990.19
2023-01-23T07:52:39.082Z,102002.38
2023-01-23T07:55:40.784Z,101997.25
2023-01-23T07:58:42.507Z,102003.41
2023-01-23T08:01:44.937Z,102003.16
2023-01-23T08:04:48.056Z,102005.78
2023-01-23T08:07:50.964Z,102007.00
2023-01-23T08:10:54.072Z,102001.53
2023-01-23T08:13:55.699Z,102006.78
2023-01-23T08:16:57.585Z,102008.72
2023-01-23T08:20:00.575Z,102001.88
2023-01-23T08:23:02.508Z,101999.81
2023-01-23T08:26:06.787Z,102000.50
2023-01-23T08:29:08.558Z,102002.34
2023-01-23T08:32:10.367Z,101999.53
2023-01-23T08:35:13.497Z,101992.28
2023-01-23T08:38:15.170Z,102001.00
2023-01-23T08:41:17.081Z,102006.88
2023-01-23T08:44:18.809Z,102010.19
2023-01-23T08:47:20.440Z,102002.66
2023-01-23T08:50:23.533Z,102009.00
2023-01-23T08:53:25.250Z,101999.59
2023-01-23T08:56:27.136Z,101995.34
2023-01-23T08:59:28.927Z,102004.34
2023-01-23T09:02:30.574Z,102000.56
2023-01-23T09:05:36.173Z,102010.22
2023-01-23T09:11:58.588Z,101997.75
2023-01-23T09:15:00.395Z,102006.97
2023-01-23T09:18:03.223Z,102007.94
2023-01-23T09:21:12.143Z,102007.25
2023-01-23T09:24:13.852Z,102000.19
2023-01-23T09:27:15.510Z,102003.50
2023-01-23T09:30:17.851Z,102004.94
2023-01-23T09:33:24.576Z,102002.81
2023-01-23T09:36:42.076Z,102005.63
2023-01-23T09:39:45.117Z,102003.31
2023-01-23T09:42:46.982Z,102000.91
2023-01-23T09:45:59.059Z,101999.28
2023-01-23T09:49:05.355Z,102006.13
2023-01-23T09:52:13.170Z,102012.03
2023-01-23T09:55:22.340Z,102007.75
2023-01-23T09:58:28.009Z,102010.16
2023-01-23T10:01:31.276Z,102017.19
2023-01-23T10:04:33.015Z,102011.31
2023-01-23T10:07:52.882Z,102018.88
2023-01-23T10:11:04.295Z,102016.28
2023-01-23T10:14:17.259Z,102022.16
2023-01-23T10:17:27.378Z,102019.56
2023-01-23T10:20:44.743Z,102023.81
2023-01-23T10:24:01.118Z,102015.31
2023-01-23T10:27:16.359Z,102013.69
2023-01-23T10:30:26.294Z,102015.31
2023-01-23T10:33:36.189Z,102006.81
2023-01-23T10:36:54.034Z,102012.25
2023-01-23T10:40:02.377Z,102004.25
2023-01-23T10:43:04.555Z,101995.97
2023-01-23T10:46:12.021Z,102010.84
2023-01-23T10:49:28.302Z,102000.94
2023-01-23T10:52:36.714Z,102004.94
2023-01-23T10:55:45.465Z,101996.88
2023-01-23T10:58:49.335Z,101995.25
2023-01-23T11:02:03.858Z,101992.81
2023-01-23T11:05:43.509Z,102008.94
2023-01-23T11:08:57.556Z,101997.31
2023-01-23T11:12:02.234Z,102005.16
2023-01-23T11:15:21.536Z,102000.66
2023-01-23T11:18:34.113Z,101996.19
2023-01-23T11:21:50.173Z,101999.19
2023-01-23T11:24:51.956Z,101997.84
2023-01-23T11:27:58.775Z,101993.59
2023-01-23T11:31:13.799Z,101995.25
2023-01-23T11:34:20.416Z,101994.50
2023-01-23T11:37:27.800Z,101988.13
2023-01-23T11:40:29.549Z,101995.69
2023-01-23T11:43:33.073Z,101987.69
2023-01-23T11:46:48.701Z,101981.75
2023-01-23T11:50:14.267Z,101977.66
2023-01-23T11:53:30.664Z,101980.34
2023-01-23T11:57:01.207Z,101981.28
2023-01-23T12:00:22.000Z,101980.38
2023-01-23T12:03:44.922Z,101976.06
2023-01-23T12:06:57.942Z,101960.41
2023-01-23T12:10:10.788Z,101961.84
2023-01-23T12:13:29.058Z,101963.75
2023-01-23T12:16:53.838Z,101975.53
2023-01-23T12:20:15.529Z,101973.53
2023-01-23T12:23:30.543Z,101963.81
2023-01-23T12:26:38.857Z,101952.63
2023-01-23T12:30:12.577Z,101958.94
2023-01-23T12:33:29.341Z,101950.50
2023-01-23T12:37:06.907Z,101953.19
2023-01-23T12:40:13.838Z,101946.56
2023-01-23T12:43:21.661Z,101945.38
2023-01-23T12:46:29.094Z,101941.56
2023-01-23T12:49:38.164Z,101938.25
2023-01-23T12:52:46.032Z,101935.22
2023-01-23T12:55:59.479Z,101932.25
2023-01-23T12:59:09.619Z,101946.34
2023-01-23T13:02:20.359Z,101934.25
2023-01-23T13:05:30.545Z,101930.69
2023-01-23T13:08:43.261Z,101931.09
2023-01-23T13:12:01.672Z,101931.25
2023-01-23T13:15:39.496Z,101937.19
2023-01-23T13:19:11.551Z,101932.16
2023-01-23T13:22:29.174Z,101941.28
2023-01-23T13:25:32.209Z,101927.06
2023-01-23T13:28:44.974Z,101925.03
2023-01-23T13:31:50.370Z,101930.88
2023-01-23T13:34:52.354Z,101931.09
2023-01-23T13:37:55.557Z,101927.41
2023-01-23T13:41:27.590Z,101929.53
2023-01-23T13:44:42.393Z,101922.38
2023-01-23T14:22:44.825Z,101885.13
2023-01-23T14:25:47.677Z,101871.94
2023-01-23T14:28:57.473Z,101879.88
2023-01-23T14:32:00.376Z,101875.13
2023-01-23T14:35:02.056Z,101880.84
2023-01-23T14:38:06.904Z,101879.41
2023-01-23T14:41:08.927Z,101883.00
2023-01-23T14:44:20.228Z,101874.03
2023-01-23T14:47:26.128Z,101889.31
2023-01-23T14:50:30.503Z,101884.66
2023-01-23T14:53:32.292Z,101879.00
2023-01-23T14:56:36.833Z,101880.38
2023-01-23T14:59:40.211Z,101885.78
2023-01-23T15:02:45.831Z,101883.50
2023-01-23T15:05:57.300Z,101879.69
2023-01-23T15:09:07.631Z,101881.38
2023-01-23T15:12:16.703Z,101886.34
2023-01-23T15:15:21.252Z,101889.19
2023-01-23T15:18:27.493Z,101889.69
2023-01-23T15:21:32.970Z,101881.22
2023-01-23T15:24:34.671Z,101884.06
2023-01-23T15:27:37.090Z,101877.47
2023-01-23T15:30:45.105Z,101881.75
2023-01-23T15:33:48.142Z,101885.03
2023-01-23T15:36:53.894Z,101883.22
2023-01-23T15:39:58.157Z,101887.25
2023-01-23T15:43:06.370Z,101890.09
2023-01-23T15:46:09.937Z,101889.41
2023-01-23T15:49:24.386Z,101891.56
2023-01-23T15:52:29.365Z,101896.72
2023-01-23T15:55:31.002Z,101891.31
2023-01-23T15:58:32.740Z,101888.50
2023-01-23T16:01:34.504Z,101888.97
2023-01-23T16:04:37.545Z,101894.88
2023-01-23T16:07:40.839Z,101892.50
2023-01-23T16:10:42.684Z,101896.03
2023-01-23T16:13:44.667Z,101895.03
2023-01-23T16:16:46.668Z,101895.91
2023-01-23T16:19:50.607Z,101895.63
2023-01-23T16:22:56.308Z,101889.97
2023-01-23T16:25:58.145Z,101891.53
2023-01-23T16:29:13.059Z,101894.81
2023-01-23T16:32:15.251Z,101887.50
2023-01-23T16:35:18.852Z,101888.88
2023-01-23T16:38:23.103Z,101885.31
2023-01-23T16:41:24.869Z,101886.00
2023-01-23T16:44:26.938Z,101893.97
2023-01-23T16:47:28.668Z,101884.50
2023-01-23T16:50:34.606Z,101894.28
2023-01-23T16:53:40.457Z,101887.63
2023-01-23T16:56:43.254Z,101900.06
2023-01-23T16:59:45.900Z,101904.03
2023-01-23T17:02:51.626Z,101907.91
2023-01-23T17:05:54.646Z,101906.28
2023-01-23T17:08:56.692Z,101910.75
2023-01-23T17:11:58.438Z,101912.84
2023-01-23T17:15:02.534Z,101908.31
2023-01-23T17:18:04.593Z,101910.59
2023-01-23T17:21:11.081Z,101915.34
2023-01-23T17:24:16.240Z,101914.03
2023-01-23T17:27:17.948Z,101907.19
2023-01-23T17:30:22.326Z,101906.00
2023-01-23T17:33:26.375Z,101903.97
2023-01-23T17:36:30.180Z,101906.31
2023-01-23T17:39:34.843Z,101902.59
2023-01-23T17:42:36.501Z,101907.59
2023-01-23T17:45:39.418Z,101905.22
2023-01-23T17:48:41.379Z,101909.22
2023-01-23T17:51:44.389Z,101925.22
2023-01-23T17:54:46.067Z,101928.72
2023-01-23T17:57:48.315Z,101930.91
2023-01-23T18:00:53.355Z,101921.22
2023-01-23T18:03:55.038Z,101921.44
2023-01-23T18:06:58.155Z,101913.19
2023-01-23T18:09:59.823Z,101919.09
2023-01-23T18:13:13.543Z,101919.09
2023-01-23T18:16:23.383Z,101921.91
2023-01-23T18:19:27.501Z,101923.53
2023-01-23T18:22:31.119Z,101930.59
2023-01-23T18:25:33.396Z,101927.31
2023-01-23T18:28:42.586Z,101925.88
2023-01-23T18:31:56.430Z,101924.41
2023-01-23T18:35:03.716Z,101928.69
2023-01-23T18:38:15.141Z,101920.38
2023-01-23T18:41:22.165Z,101932.16
2023-01-23T18:44:26.707Z,101938.72
2023-01-23T18:47:28.750Z,101942.06
2023-01-23T18:50:31.122Z,101947.91
2023-01-23T18:53:45.641Z,101934.69
2023-01-23T18:56:57.708Z,101950.50
2023-01-23T19:00:06.044Z,101944.56
2023-01-23T19:03:13.657Z,101952.28
2023-01-23T19:06:19.680Z,101961.00
2023-01-23T19:09:23.262Z,101966.78
2023-01-23T19:12:34.533Z,101960.66
2023-01-23T19:15:44.537Z,101964.00
2023-01-23T19:18:47.830Z,101953.47
2023-01-23T19:21:50.898Z,101957.97
2023-01-23T19:24:54.523Z,101962.72
2023-01-23T19:27:58.078Z,101963.94
2023-01-23T19:31:00.369Z,101970.09
2023-01-23T19:34:03.815Z,101972.03
2023-01-23T19:37:07.247Z,101967.31
2023-01-23T19:40:12.281Z,101973.47
2023-01-23T19:43:16.774Z,101977.47
2023-01-23T19:46:19.039Z,101983.59
2023-01-23T19:49:20.786Z,101985.91
2023-01-23T19:52:22.441Z,101984.94
2023-01-23T19:55:27.832Z,101973.91
2023-01-23T19:58:31.470Z,101983.56
2023-01-23T20:01:37.042Z,101992.50
2023-01-23T20:04:38.657Z,101992.03
2023-01-23T20:07:40.381Z,101987.81
2023-01-23T20:10:43.434Z,101985.44
2023-01-23T20:13:45.297Z,101985.44
2023-01-23T20:16:47.061Z,101994.09
2023-01-23T20:19:49.398Z,101988.03
2023-01-23T20:22:51.176Z,101984.53
2023-01-23T20:25:58.558Z,101979.03
2023-01-23T20:29:00.302Z,101980.69
2023-01-23T20:32:02.250Z,101983.78
2023-01-23T20:35:04.542Z,101978.81
2023-01-23T20:38:06.265Z,101983.50
2023-01-23T20:41:11.670Z,101984.81
2023-01-23T20:44:13.444Z,101986.72
2023-01-23T20:47:15.251Z,101981.13
2023-01-23T20:50:17.241Z,101987.22
2023-01-23T20:53:30.971Z,101988.44
2023-01-23T20:56:34.087Z,101985.44
2023-01-23T20:59:35.769Z,101983.75
2023-01-23T21:02:37.695Z,101981.94
2023-01-23T21:05:39.350Z,101979.81
2023-01-23T21:08:41.783Z,101996.34
2023-01-23T21:11:45.095Z,101994.91
2023-01-23T21:14:47.067Z,101987.59
2023-01-23T21:17:48.787Z,101984.31
2023-01-23T21:20:50.499Z,101985.53
2023-01-23T21:23:52.314Z,101988.09
2023-01-23T21:26:55.379Z,102004.59
2023-01-23T21:29:57.107Z,102005.53
2023-01-23T21:32:58.849Z,102018.97
2023-01-23T21:36:01.967Z,102013.78
2023-01-23T21:39:04.935Z,102015.72
2023-01-23T21:42:07.915Z,102014.97
2023-01-23T21:45:10.243Z,102014.03
2023-01-23T21:48:12.325Z,102020.38
2023-01-23T21:51:16.092Z,102025.31
2023-01-23T21:54:17.787Z,102032.13
2023-01-23T21:57:21.665Z,102021.50
2023-01-23T22:00:41.966Z,102016.16
2023-01-23T22:03:44.615Z,102018.47
2023-01-23T22:06:46.608Z,102010.47
2023-01-23T22:09:48.832Z,102016.63
2023-01-23T22:12:51.857Z,102017.53
2023-01-23T22:15:53.715Z,102020.38
2023-01-23T22:18:55.372Z,102029.09
2023-01-23T22:21:57.392Z,102021.03
2023-01-23T22:24:59.124Z,102030.25
2023-01-23T22:28:02.128Z,102026.97
2023-01-23T22:31:10.807Z,102038.25
2023-01-23T22:34:12.665Z,102037.78
2023-01-23T22:37:14.535Z,102046.28
2023-01-23T22:40:16.948Z,102048.38
2023-01-23T22:43:19.906Z,102047.69
2023-01-23T22:46:22.634Z,102052.88
2023-01-23T22:49:24.492Z,102050.50
2023-01-23T22:52:26.227Z,102044.38
2023-01-23T22:55:27.892Z,102051.44
2023-01-23T22:58:30.893Z,102050.31
2023-01-23T23:01:32.594Z,102039.69
2023-01-23T23:04:34.363Z,102048.16
2023-01-23T23:07:37.207Z,102041.09
2023-01-23T23:10:38.996Z,102037.13
2023-01-23T23:13:42.118Z,102042.78
2023-01-23T23:16:43.791Z,102044.44
2023-01-23T23:19:45.433Z,102044.94
2023-01-23T23:22:47.112Z,102048.50
2023-01-23T23:25:53.580Z,102043.53
2023-01-23T23:28:57.267Z,102042.59
2023-01-23T23:31:58.969Z,102045.66
2023-01-23T23:35:00.657Z,102042.38
2023-01-23T23:38:02.438Z,102039.28
2023-01-23T23:41:06.890Z,102036.91
2023-01-23T23:44:10.068Z,102038.78
2023-01-23T23:47:11.744Z,102037.38
2023-01-23T23:50:13.396Z,102032.44
2023-01-23T23:53:15.812Z,102041.63
2023-01-23T23:56:20.828Z,102042.13
2023-01-23T23:59:23.867Z,102039.28
